West Stockbridge, MA (01266)

7:53 PM EST on December 17, 2014 (GMT -0500)
KMARICHM2 | Change Station
CLOSE
Current Station
Personal Weather Station
Location: Richmond, MA
Elevation: 1073 ft
Nearby Weather Stations

Elev 1073 ft 42.36 °N, 73.37 °W | Updated 48 seconds ago

Snow
Snow
33.7 °F
Feels Like 34 °F
N
0.0
Wind Variable Wind from NNW
Gusts 0.0 mph

Today
High -- | Low -- °F
--% Chance of Precip.
Yesterday
High -- | Low -- °F
Precip. -- in
7:16 AM 4:22 PM
Waning Crescent, 18% visible
Pressure 29.83 in
Visibility 5.0 miles
Clouds Mostly Cloudy 1200 ft
Overcast 2900 ft
Windchill 34 °F
Dew Point 32 °F
Humidity 93%
Rainfall 0.54 in
Snow Depth Not available.
UV 0 out of 12
Pollen .10 out of 12
Air Quality Not available.
Flu Activity Not available.
METAR KPSF 172354Z AUTO 29010KT 5SM -SN BR BKN012 OVC029 01/M01 A2981 RMK AO2 SLP099 P0001 60004 I6000 T00111006 10044 20011 51017

More Conditions Fewer Conditions

Pressure 29.83 in
Visibility 5.0 miles
Clouds Mostly Cloudy 1200 ft
Overcast 2900 ft
Windchill 34 °F
Dew Point 32 °F
Humidity 93%
Rainfall 0.54 in
Snow Depth Not available.
UV 0 out of 12
Pollen .10 out of 12
Air Quality Not available.
Flu Activity Not available.
METAR KPSF 172354Z AUTO 29010KT 5SM -SN BR BKN012 OVC029 01/M01 A2981 RMK AO2 SLP099 P0001 60004 I6000 T00111006 10044 20011 51017

More Conditions Fewer Conditions

10-Day Weather Forecast

Almanac

Astronomy

Dec. 17, 2014 Rise Set
Actual Time
Civil Twilight
Nautical Twilight
Astronomical Twilight
Moon
Length of Visible Light
Length of Day
Tomorrow will be .
, % of the Moon is Illuminated

Today's Extremes

State Highs State Lows

Community

WunderPhotos

Upload Photos

1,778,837 photos uploaded!

WunderBlogs® & News

Nearby

Air Quality

  Air Quality AQ Index Pollutant
Not available.

Snow Depth

Station Depth Elevation

Earthquake Activity

City Distance Mag. Time & Date
Minimum magnitude displayed is 2.5.

Coastal Water Temperatures

Place Temperature

Nearby Weather Stations